Time;durP1;ratioP1;P1;durP2;ratioP2;P2;SDS_P1;SDS_P2;PMS_P1;PMS_P2;Temp;Humidity;BMP_temperature;BMP_pressure;BME280_temperature;BME280_humidity;BME280_pressure;Samples;Min_cycle;Max_cycle;Signal;HPM_P1;HPM_P2
2022/08/10 00:01:24;;;;;;;;;;;27.30;44.80;;;;;;5072290;28;19995;-61
2022/08/10 00:03:50;;;;;;;;;;;27.30;44.70;;;;;;5084730;28;19920;-61
2022/08/10 00:06:16;;;;;;;;;;;27.40;44.80;;;;;;5072767;28;19908;-61
2022/08/10 00:08:41;;;;;;;;;;;27.40;44.80;;;;;;5089051;28;20475;-61
2022/08/10 00:11:07;;;;;;;;;;;27.40;44.80;;;;;;5073120;28;19931;-61
2022/08/10 00:13:32;;;;;;;;;;;27.40;44.80;;;;;;5074490;28;20020;-61
2022/08/10 00:15:58;;;;;;;;;;;27.40;44.80;;;;;;5091178;28;19919;-61
2022/08/10 00:18:23;;;;;;;;;;;27.30;44.70;;;;;;5072964;28;19916;-61
2022/08/10 00:20:49;;;;;;;;;;;27.30;44.70;;;;;;5083873;28;20006;-61
2022/08/10 00:23:14;;;;;;;;;;;27.30;44.60;;;;;;5071441;28;19943;-61
2022/08/10 00:25:39;;;;;;;;;;;27.30;44.80;;;;;;5091214;28;19934;-61
2022/08/10 00:28:05;;;;;;;;;;;27.30;44.90;;;;;;5074011;28;19918;-61
2022/08/10 00:30:30;;;;;;;;;;;27.30;44.80;;;;;;5054033;28;19920;-61
2022/08/10 00:32:56;;;;;;;;;;;27.30;44.80;;;;;;5072775;28;20011;-61
2022/08/10 00:35:21;;;;;;;;;;;27.20;44.90;;;;;;5090079;28;19912;-61
2022/08/10 00:37:47;;;;;;;;;;;27.30;45.10;;;;;;5089051;28;20347;-61
2022/08/10 00:40:12;;;;;;;;;;;27.30;44.90;;;;;;5079343;28;19924;-61
2022/08/10 00:42:38;;;;;;;;;;;27.30;44.90;;;;;;5067375;28;19961;-61
2022/08/10 00:45:03;;;;;;;;;;;27.30;44.90;;;;;;5090014;28;19920;-61
2022/08/10 00:47:29;;;;;;;;;;;27.30;44.90;;;;;;5093284;28;19939;-61
2022/08/10 00:49:54;;;;;;;;;;;27.30;45.00;;;;;;5072346;28;20363;-61
2022/08/10 00:52:20;;;;;;;;;;;27.30;44.80;;;;;;5072015;28;20333;-61
2022/08/10 00:54:46;;;;;;;;;;;27.20;44.90;;;;;;5050929;28;19952;-61
2022/08/10 00:57:11;;;;;;;;;;;27.20;44.90;;;;;;5088685;28;19955;-61
2022/08/10 00:59:37;;;;;;;;;;;27.20;44.90;;;;;;5072413;28;19923;-61
2022/08/10 01:02:02;;;;;;;;;;;27.20;44.90;;;;;;5072305;28;20020;-61
2022/08/10 01:04:27;;;;;;;;;;;27.20;44.90;;;;;;5072181;28;19916;-61
2022/08/10 01:06:56;;;;;;;;;;;27.20;45.00;;;;;;5089011;28;19921;-61
2022/08/10 01:09:30;;;;;;;;;;;27.20;45.10;;;;;;5069224;28;19962;-61
2022/08/10 01:12:10;;;;;;;;;;;27.10;45.00;;;;;;5073160;28;19943;-61
2022/08/10 01:14:54;;;;;;;;;;;27.20;45.00;;;;;;5069971;28;19960;-61
2022/08/10 01:17:22;;;;;;;;;;;27.20;45.00;;;;;;5086167;28;19912;-61
2022/08/10 01:19:48;;;;;;;;;;;27.20;45.10;;;;;;5094763;28;20451;-61
2022/08/10 01:22:32;;;;;;;;;;;27.20;45.10;;;;;;5092091;28;20003;-61
2022/08/10 01:25:16;;;;;;;;;;;27.10;45.10;;;;;;5072615;28;19919;-61
2022/08/10 01:27:53;;;;;;;;;;;27.10;45.10;;;;;;5092880;28;20280;-61
2022/08/10 01:30:19;;;;;;;;;;;27.10;45.10;;;;;;5076854;28;19920;-61
2022/08/10 01:33:04;;;;;;;;;;;27.10;45.20;;;;;;5070044;28;19961;-61
2022/08/10 01:35:29;;;;;;;;;;;27.10;45.10;;;;;;5093513;28;19916;-61
2022/08/10 01:38:18;;;;;;;;;;;27.10;45.10;;;;;;5092921;28;19965;-61
2022/08/10 01:40:58;;;;;;;;;;;27.10;45.10;;;;;;5080170;28;19970;-61
2022/08/10 01:43:23;;;;;;;;;;;27.10;45.10;;;;;;5087795;28;20403;-61
2022/08/10 01:45:50;;;;;;;;;;;27.10;45.10;;;;;;5076599;28;19999;-61
2022/08/10 01:48:32;;;;;;;;;;;27.10;45.20;;;;;;5057175;28;19956;-61
2022/08/10 01:51:13;;;;;;;;;;;27.10;45.20;;;;;;5074567;28;20395;-61
2022/08/10 01:53:42;;;;;;;;;;;27.10;45.20;;;;;;5073528;28;19916;-61
2022/08/10 01:56:08;;;;;;;;;;;27.10;45.20;;;;;;5075408;28;19919;-61
2022/08/10 01:58:34;;;;;;;;;;;27.10;45.10;;;;;;5073789;28;19920;-61
2022/08/10 02:01:00;;;;;;;;;;;27.10;45.20;;;;;;5075584;28;20012;-61
2022/08/10 02:03:25;;;;;;;;;;;27.10;45.20;;;;;;5075387;28;19908;-62
2022/08/10 02:05:52;;;;;;;;;;;27.10;45.20;;;;;;5074258;28;19912;-61
2022/08/10 02:08:17;;;;;;;;;;;27.10;45.20;;;;;;5052969;28;20060;-61
2022/08/10 02:10:43;;;;;;;;;;;27.10;45.20;;;;;;5075450;28;19924;-61
2022/08/10 02:13:09;;;;;;;;;;;27.00;45.10;;;;;;5074000;28;19928;-61
2022/08/10 02:15:34;;;;;;;;;;;27.00;45.20;;;;;;5076558;28;19908;-61
2022/08/10 02:18:00;;;;;;;;;;;27.00;45.20;;;;;;5072563;28;20877;-61
2022/08/10 02:20:27;;;;;;;;;;;27.00;45.30;;;;;;5071713;28;19958;-61
2022/08/10 02:22:57;;;;;;;;;;;27.00;45.30;;;;;;5051074;28;19915;-61
2022/08/10 02:25:22;;;;;;;;;;;27.00;45.50;;;;;;5086475;28;19984;-61
2022/08/10 02:27:48;;;;;;;;;;;26.90;45.40;;;;;;5074555;28;20420;-61
2022/08/10 02:30:13;;;;;;;;;;;26.90;45.50;;;;;;5072281;28;20026;-61
2022/08/10 02:32:39;;;;;;;;;;;26.90;45.40;;;;;;5074813;28;19916;-61
2022/08/10 02:35:06;;;;;;;;;;;26.90;45.50;;;;;;5074287;28;19922;-61
2022/08/10 02:37:31;;;;;;;;;;;26.90;45.50;;;;;;5058334;28;19915;-61
2022/08/10 02:39:57;;;;;;;;;;;26.90;45.60;;;;;;5091057;28;19912;-61
2022/08/10 02:42:23;;;;;;;;;;;26.90;45.60;;;;;;5069579;28;20356;-61
2022/08/10 02:44:49;;;;;;;;;;;26.90;45.70;;;;;;5091792;28;19969;-61
2022/08/10 02:47:17;;;;;;;;;;;26.90;45.60;;;;;;5091404;28;20295;-61
2022/08/10 02:49:42;;;;;;;;;;;26.90;45.70;;;;;;5072024;28;19912;-61
2022/08/10 02:52:10;;;;;;;;;;;26.90;45.70;;;;;;5074272;28;19961;-61
2022/08/10 02:54:37;;;;;;;;;;;26.90;45.60;;;;;;5073007;28;19916;-61
2022/08/10 02:57:29;;;;;;;;;;;26.90;45.70;;;;;;5074987;28;20549;-61
2022/08/10 02:59:56;;;;;;;;;;;26.90;45.80;;;;;;5085638;28;19912;-61
2022/08/10 03:02:24;;;;;;;;;;;26.80;45.70;;;;;;5073970;28;19958;-61
2022/08/10 03:04:52;;;;;;;;;;;26.80;45.80;;;;;;5074291;28;19919;-61
2022/08/10 03:07:18;;;;;;;;;;;26.80;45.80;;;;;;5072789;28;19912;-61
2022/08/10 03:09:44;;;;;;;;;;;26.80;45.90;;;;;;5065081;28;19921;-61
2022/08/10 03:12:09;;;;;;;;;;;26.80;45.90;;;;;;5072935;28;19977;-61
2022/08/10 03:14:35;;;;;;;;;;;26.80;45.80;;;;;;5073912;28;20012;-61
2022/08/10 03:17:01;;;;;;;;;;;26.80;46.00;;;;;;5052497;28;20057;-61
2022/08/10 03:19:26;;;;;;;;;;;26.80;46.10;;;;;;5089764;28;20423;-61
2022/08/10 03:21:52;;;;;;;;;;;26.70;46.00;;;;;;5072256;28;19919;-61
2022/08/10 03:24:21;;;;;;;;;;;26.70;46.10;;;;;;5073471;28;19908;-61
2022/08/10 03:26:47;;;;;;;;;;;26.70;46.10;;;;;;5075073;28;19993;-61
2022/08/10 03:29:13;;;;;;;;;;;26.70;46.10;;;;;;5071174;28;20288;-61
2022/08/10 03:31:38;;;;;;;;;;;26.70;46.10;;;;;;5073622;28;19922;-61
2022/08/10 03:34:04;;;;;;;;;;;26.70;46.20;;;;;;5066946;28;19927;-61
2022/08/10 03:36:30;;;;;;;;;;;26.70;46.20;;;;;;5057467;28;19908;-61
2022/08/10 03:38:55;;;;;;;;;;;26.70;46.30;;;;;;5053430;28;19955;-61
2022/08/10 03:41:35;;;;;;;;;;;26.70;46.20;;;;;;5072643;28;19947;-61
2022/08/10 03:44:00;;;;;;;;;;;26.60;46.30;;;;;;5071838;28;19912;-61
2022/08/10 03:46:26;;;;;;;;;;;26.60;46.30;;;;;;5073008;28;19912;-61
2022/08/10 03:48:52;;;;;;;;;;;26.60;46.30;;;;;;5068792;28;19962;-61
2022/08/10 03:51:17;;;;;;;;;;;26.60;46.40;;;;;;5072589;28;19969;-61
2022/08/10 03:53:43;;;;;;;;;;;26.60;46.40;;;;;;5089696;28;19916;-61
2022/08/10 03:56:08;;;;;;;;;;;26.60;46.50;;;;;;5058140;28;20323;-61
2022/08/10 03:58:34;;;;;;;;;;;26.60;46.40;;;;;;5071473;28;20276;-61
2022/08/10 04:00:59;;;;;;;;;;;26.60;46.60;;;;;;5091588;28;19959;-61
2022/08/10 04:03:25;;;;;;;;;;;26.60;46.60;;;;;;5055395;28;19909;-61
2022/08/10 04:05:51;;;;;;;;;;;26.60;46.70;;;;;;5066700;28;19916;-61
2022/08/10 04:08:16;;;;;;;;;;;26.60;46.60;;;;;;5088557;28;19957;-61
2022/08/10 04:10:42;;;;;;;;;;;26.60;46.60;;;;;;5073090;28;19916;-61
2022/08/10 04:13:07;;;;;;;;;;;26.60;46.60;;;;;;5083240;28;19931;-61
2022/08/10 04:15:33;;;;;;;;;;;26.60;46.70;;;;;;5099608;28;20736;-61
2022/08/10 04:17:58;;;;;;;;;;;26.60;46.70;;;;;;5090178;28;20373;-61
2022/08/10 04:20:32;;;;;;;;;;;26.50;46.70;;;;;;5085586;28;19943;-61
2022/08/10 04:22:58;;;;;;;;;;;26.50;46.90;;;;;;5083015;28;19927;-61
2022/08/10 04:25:24;;;;;;;;;;;26.50;46.90;;;;;;5058545;28;19924;-61
2022/08/10 04:27:49;;;;;;;;;;;26.50;46.90;;;;;;5089509;28;20012;-61
2022/08/10 04:30:15;;;;;;;;;;;26.50;46.90;;;;;;5062956;28;19923;-61
2022/08/10 04:32:41;;;;;;;;;;;26.50;47.10;;;;;;5080341;28;19937;-61
2022/08/10 04:35:08;;;;;;;;;;;26.50;47.10;;;;;;5076376;28;19953;-61
2022/08/10 04:37:36;;;;;;;;;;;26.50;47.10;;;;;;5089942;28;19923;-61
2022/08/10 04:40:01;;;;;;;;;;;26.50;47.10;;;;;;5082940;28;20412;-61
2022/08/10 04:42:27;;;;;;;;;;;26.50;47.20;;;;;;5087826;28;19912;-61
2022/08/10 04:44:53;;;;;;;;;;;26.50;47.10;;;;;;5089005;28;19919;-61
2022/08/10 04:47:18;;;;;;;;;;;26.50;47.10;;;;;;5071344;28;20379;-63
2022/08/10 04:49:43;;;;;;;;;;;26.50;47.20;;;;;;5086601;28;19919;-64
2022/08/10 04:52:09;;;;;;;;;;;26.40;47.30;;;;;;5078758;28;19912;-64
2022/08/10 04:54:34;;;;;;;;;;;26.40;47.40;;;;;;5088330;28;19981;-61
2022/08/10 04:57:00;;;;;;;;;;;26.40;47.40;;;;;;5094286;28;19981;-61
2022/08/10 04:59:25;;;;;;;;;;;26.40;47.60;;;;;;5088243;28;19912;-61
2022/08/10 05:01:51;;;;;;;;;;;26.40;47.60;;;;;;5095280;28;19954;-61
2022/08/10 05:04:16;;;;;;;;;;;26.40;47.60;;;;;;5102235;28;19966;-61
2022/08/10 05:06:42;;;;;;;;;;;26.40;47.80;;;;;;5074688;28;20371;-61
2022/08/10 05:09:07;;;;;;;;;;;26.40;47.90;;;;;;5093791;28;20535;-61
2022/08/10 05:11:33;;;;;;;;;;;26.40;47.80;;;;;;5109754;28;19935;-61
2022/08/10 05:13:58;;;;;;;;;;;26.30;47.70;;;;;;5115149;28;19924;-61
2022/08/10 05:16:23;;;;;;;;;;;26.30;48.10;;;;;;5088630;28;20329;-61
2022/08/10 05:18:49;;;;;;;;;;;26.30;48.20;;;;;;5095209;28;20322;-61
2022/08/10 05:21:14;;;;;;;;;;;26.30;48.20;;;;;;5114628;28;19947;-61
2022/08/10 05:23:40;;;;;;;;;;;26.30;48.30;;;;;;5095673;28;19919;-61
2022/08/10 05:26:05;;;;;;;;;;;26.30;48.30;;;;;;5112947;28;19918;-61
2022/08/10 05:28:31;;;;;;;;;;;26.30;48.40;;;;;;5113977;28;20056;-61
2022/08/10 05:30:56;;;;;;;;;;;26.20;48.60;;;;;;5113365;28;20312;-61
2022/08/10 05:33:22;;;;;;;;;;;26.20;48.90;;;;;;5108129;28;19923;-61
2022/08/10 05:35:47;;;;;;;;;;;26.20;49.00;;;;;;5107263;28;19916;-61
2022/08/10 05:38:13;;;;;;;;;;;26.20;48.80;;;;;;5094139;28;20268;-61
2022/08/10 05:40:39;;;;;;;;;;;26.10;48.90;;;;;;5096624;28;19941;-61
2022/08/10 05:43:05;;;;;;;;;;;26.10;49.20;;;;;;5093567;28;19964;-61
2022/08/10 05:45:30;;;;;;;;;;;26.20;49.20;;;;;;5076937;28;19919;-61
2022/08/10 05:47:56;;;;;;;;;;;26.20;49.00;;;;;;5114681;28;19915;-61
2022/08/10 05:50:23;;;;;;;;;;;26.20;49.10;;;;;;5114702;28;19955;-61
2022/08/10 05:52:48;;;;;;;;;;;26.20;49.30;;;;;;5108647;28;20377;-61
2022/08/10 05:55:13;;;;;;;;;;;26.20;49.00;;;;;;5109321;28;20022;-61
2022/08/10 05:57:39;;;;;;;;;;;26.20;49.20;;;;;;5113275;28;19951;-61
2022/08/10 06:00:06;;;;;;;;;;;26.20;49.20;;;;;;5089011;28;19957;-61
2022/08/10 06:02:32;;;;;;;;;;;26.20;49.10;;;;;;5096162;28;19912;-61
2022/08/10 06:04:57;;;;;;;;;;;26.20;49.00;;;;;;5114275;28;19908;-61
2022/08/10 06:07:25;;;;;;;;;;;26.20;49.10;;;;;;5094541;28;20713;-61
2022/08/10 06:09:51;;;;;;;;;;;26.20;49.30;;;;;;5088657;28;20437;-61
2022/08/10 06:12:16;;;;;;;;;;;26.20;49.30;;;;;;5092892;28;19967;-61
2022/08/10 06:15:00;;;;;;;;;;;26.20;49.20;;;;;;5106283;28;19911;-61
2022/08/10 06:17:29;;;;;;;;;;;26.20;49.20;;;;;;5112183;28;19926;-61
2022/08/10 06:19:58;;;;;;;;;;;26.20;49.10;;;;;;5093981;28;19920;-64
2022/08/10 06:22:24;;;;;;;;;;;26.20;49.00;;;;;;5114226;28;20367;-63
2022/08/10 06:24:50;;;;;;;;;;;26.20;49.00;;;;;;5099981;28;19962;-63
2022/08/10 06:27:16;;;;;;;;;;;26.20;49.00;;;;;;5112894;28;20343;-61
2022/08/10 06:29:42;;;;;;;;;;;26.20;49.00;;;;;;5105113;28;19947;-62
2022/08/10 06:32:07;;;;;;;;;;;26.20;49.00;;;;;;5092075;28;19962;-61
2022/08/10 06:34:43;;;;;;;;;;;26.20;49.20;;;;;;5086755;28;19916;-61
2022/08/10 06:37:10;;;;;;;;;;;26.10;49.30;;;;;;5092644;28;20278;-61
2022/08/10 06:39:35;;;;;;;;;;;26.20;49.30;;;;;;5088546;28;20005;-63
2022/08/10 06:42:06;;;;;;;;;;;26.20;49.30;;;;;;5087765;28;19920;-61
2022/08/10 06:44:33;;;;;;;;;;;26.20;49.20;;;;;;5090747;28;20379;-61
2022/08/10 06:46:59;;;;;;;;;;;26.20;49.10;;;;;;5101598;28;19912;-61
2022/08/10 06:49:24;;;;;;;;;;;26.20;49.10;;;;;;5111051;28;19919;-62
2022/08/10 06:51:54;;;;;;;;;;;26.20;49.00;;;;;;5082843;28;19934;-61
2022/08/10 06:54:21;;;;;;;;;;;26.20;49.00;;;;;;5092531;28;19923;-61
2022/08/10 06:56:46;;;;;;;;;;;26.20;49.00;;;;;;5074979;28;19912;-61
2022/08/10 06:59:25;;;;;;;;;;;26.20;49.00;;;;;;5094276;28;19965;-61
2022/08/10 07:02:17;;;;;;;;;;;26.20;49.20;;;;;;5091919;28;19958;-61
2022/08/10 07:04:44;;;;;;;;;;;26.20;49.00;;;;;;5104039;28;19912;-61
2022/08/10 07:07:13;;;;;;;;;;;26.20;49.10;;;;;;5089528;28;19963;-62
2022/08/10 07:09:38;;;;;;;;;;;26.20;49.00;;;;;;5088853;28;19915;-63
2022/08/10 07:12:05;;;;;;;;;;;26.20;49.30;;;;;;5106646;28;19974;-61
2022/08/10 07:14:30;;;;;;;;;;;26.20;49.30;;;;;;5077019;28;20340;-61
2022/08/10 07:16:56;;;;;;;;;;;26.20;49.30;;;;;;5091598;28;19952;-61
2022/08/10 07:19:21;;;;;;;;;;;26.20;49.30;;;;;;5090582;28;19955;-61
2022/08/10 07:21:47;;;;;;;;;;;26.20;49.30;;;;;;5083974;28;19912;-61
2022/08/10 07:24:13;;;;;;;;;;;26.10;49.30;;;;;;5085968;28;19912;-61
2022/08/10 07:26:44;;;;;;;;;;;26.10;49.30;;;;;;5090897;28;19935;-61
2022/08/10 07:29:10;;;;;;;;;;;26.20;49.30;;;;;;5091630;28;19972;-62
2022/08/10 07:31:36;;;;;;;;;;;26.20;49.30;;;;;;5088768;28;19925;-61
2022/08/10 07:34:05;;;;;;;;;;;26.20;49.30;;;;;;5072149;28;19957;-61
2022/08/10 07:36:30;;;;;;;;;;;26.20;49.20;;;;;;5072339;28;19916;-61
2022/08/10 07:38:56;;;;;;;;;;;26.20;49.30;;;;;;5063043;28;19915;-61
2022/08/10 07:41:22;;;;;;;;;;;26.20;49.30;;;;;;5071647;28;20356;-61
2022/08/10 07:43:47;;;;;;;;;;;26.30;49.00;;;;;;5090173;28;20260;-61
2022/08/10 07:46:13;;;;;;;;;;;26.20;49.10;;;;;;5090496;28;20007;-61
2022/08/10 07:48:48;;;;;;;;;;;26.20;49.10;;;;;;5089931;28;19916;-61
2022/08/10 07:51:13;;;;;;;;;;;26.20;49.70;;;;;;5067342;28;20573;-61
2022/08/10 07:53:41;;;;;;;;;;;26.30;48.90;;;;;;5088031;28;19923;-61
2022/08/10 07:56:07;;;;;;;;;;;26.30;48.70;;;;;;5068549;28;20384;-61
2022/08/10 07:58:37;;;;;;;;;;;26.20;48.80;;;;;;5078317;28;19916;-61
2022/08/10 08:01:02;;;;;;;;;;;26.20;48.90;;;;;;5064118;28;20384;-61
2022/08/10 08:03:28;;;;;;;;;;;26.20;48.90;;;;;;5073022;28;19959;-61
2022/08/10 08:05:54;;;;;;;;;;;26.20;48.80;;;;;;5073574;28;20434;-61
2022/08/10 08:08:20;;;;;;;;;;;26.20;48.50;;;;;;5087697;28;19912;-61
2022/08/10 08:10:45;;;;;;;;;;;26.20;48.60;;;;;;5071020;28;19912;-61
2022/08/10 08:13:11;;;;;;;;;;;26.20;48.60;;;;;;5101181;28;20007;-61
2022/08/10 08:15:37;;;;;;;;;;;26.20;48.60;;;;;;5093687;28;19962;-61
2022/08/10 08:18:04;;;;;;;;;;;26.30;48.50;;;;;;5092590;28;19935;-62
2022/08/10 08:20:29;;;;;;;;;;;26.30;48.40;;;;;;5093174;28;19912;-61
2022/08/10 08:22:55;;;;;;;;;;;26.40;48.20;;;;;;5092972;28;19935;-62
2022/08/10 08:25:20;;;;;;;;;;;26.40;48.30;;;;;;5092243;28;19915;-61
2022/08/10 08:27:51;;;;;;;;;;;26.40;48.40;;;;;;5108207;28;19986;-61
2022/08/10 08:30:16;;;;;;;;;;;26.40;48.30;;;;;;5093304;28;20002;-61
2022/08/10 08:32:42;;;;;;;;;;;26.30;48.30;;;;;;5092606;28;19998;-61
2022/08/10 08:35:09;;;;;;;;;;;26.20;48.30;;;;;;5091324;28;19916;-61
2022/08/10 08:37:36;;;;;;;;;;;26.30;48.30;;;;;;5091945;28;19956;-61
2022/08/10 08:40:13;;;;;;;;;;;26.30;48.20;;;;;;5091172;28;19998;-61
2022/08/10 08:42:57;;;;;;;;;;;26.40;48.10;;;;;;5091931;28;19931;-61
2022/08/10 08:45:29;;;;;;;;;;;26.30;48.10;;;;;;5109980;28;20295;-61
2022/08/10 08:48:00;;;;;;;;;;;26.30;47.90;;;;;;5105541;28;19931;-61
2022/08/10 08:50:45;;;;;;;;;;;26.40;47.70;;;;;;5090387;28;20447;-61
2022/08/10 08:53:13;;;;;;;;;;;26.40;47.50;;;;;;5103608;28;20310;-61
2022/08/10 08:55:44;;;;;;;;;;;26.50;47.50;;;;;;5108204;28;19915;-62
2022/08/10 08:58:10;;;;;;;;;;;26.50;47.50;;;;;;5110124;28;19957;-61
2022/08/10 09:00:49;;;;;;;;;;;26.50;47.60;;;;;;5111031;28;19908;-61
2022/08/10 09:03:23;;;;;;;;;;;26.50;47.50;;;;;;5104841;28;20014;-61
2022/08/10 09:06:07;;;;;;;;;;;26.60;47.40;;;;;;5109954;28;20007;-61
2022/08/10 09:08:36;;;;;;;;;;;26.60;47.30;;;;;;5110224;28;19912;-61
2022/08/10 09:11:12;;;;;;;;;;;26.60;47.90;;;;;;5109151;28;19956;-61
2022/08/10 09:14:01;;;;;;;;;;;26.60;47.20;;;;;;5069846;28;20020;-61
2022/08/10 09:16:26;;;;;;;;;;;26.60;47.20;;;;;;5073657;28;19912;-64
2022/08/10 09:18:55;;;;;;;;;;;26.60;47.10;;;;;;5086889;28;19931;-61
2022/08/10 09:21:40;;;;;;;;;;;26.60;47.00;;;;;;5066720;28;20007;-61
2022/08/10 09:24:09;;;;;;;;;;;26.60;47.10;;;;;;5089788;28;19908;-62
2022/08/10 09:26:41;;;;;;;;;;;26.60;47.70;;;;;;5072172;28;19916;-61
2022/08/10 09:29:06;;;;;;;;;;;26.60;47.20;;;;;;5082333;28;19908;-61
2022/08/10 09:31:34;;;;;;;;;;;26.60;46.90;;;;;;5051633;28;19913;-61
2022/08/10 09:34:05;;;;;;;;;;;26.70;46.80;;;;;;5060775;28;20050;-61
2022/08/10 09:36:54;;;;;;;;;;;26.70;46.70;;;;;;5088765;28;19916;-62
2022/08/10 09:39:22;;;;;;;;;;;26.70;46.80;;;;;;5075268;28;19912;-62
2022/08/10 09:41:54;;;;;;;;;;;26.60;46.90;;;;;;5075079;28;19916;-60
2022/08/10 09:44:25;;;;;;;;;;;26.70;46.70;;;;;;5075525;28;20296;-61
2022/08/10 09:47:03;;;;;;;;;;;26.70;46.80;;;;;;5076159;28;20003;-64
2022/08/10 09:49:49;;;;;;;;;;;26.70;46.60;;;;;;5093876;28;19944;-64
2022/08/10 09:52:27;;;;;;;;;;;26.70;46.50;;;;;;5067142;28;19989;-63
2022/08/10 09:55:03;;;;;;;;;;;26.70;46.40;;;;;;5051929;28;19918;-62
2022/08/10 09:57:32;;;;;;;;;;;26.60;46.20;;;;;;5075484;28;19916;-61
2022/08/10 10:00:09;;;;;;;;;;;26.60;46.00;;;;;;5067248;28;20282;-61
2022/08/10 10:02:45;;;;;;;;;;;26.60;46.20;;;;;;5055104;28;20011;-61
2022/08/10 10:05:15;;;;;;;;;;;26.60;46.20;;;;;;5086998;28;19912;-61
2022/08/10 10:07:42;;;;;;;;;;;26.70;46.00;;;;;;5075034;28;19908;-63
2022/08/10 10:10:09;;;;;;;;;;;26.70;45.80;;;;;;5090092;28;19915;-63
2022/08/10 10:12:38;;;;;;;;;;;26.80;45.70;;;;;;5079014;28;19924;-63
2022/08/10 10:15:21;;;;;;;;;;;26.90;45.70;;;;;;5113708;28;19912;-63
2022/08/10 10:18:01;;;;;;;;;;;27.00;45.60;;;;;;5113636;28;20276;-63
2022/08/10 10:20:45;;;;;;;;;;;26.90;45.50;;;;;;5112655;28;20405;-63
2022/08/10 10:23:10;;;;;;;;;;;26.90;45.30;;;;;;5113203;28;19915;-63
2022/08/10 10:25:38;;;;;;;;;;;27.00;45.40;;;;;;5095543;28;19908;-63
2022/08/10 10:28:22;;;;;;;;;;;27.00;45.00;;;;;;5075807;28;19977;-63
2022/08/10 10:31:00;;;;;;;;;;;27.00;45.10;;;;;;5110708;28;20486;-63
2022/08/10 10:33:36;;;;;;;;;;;27.00;45.20;;;;;;5102142;28;19977;-63
2022/08/10 10:36:02;;;;;;;;;;;26.90;44.60;;;;;;5112840;28;19918;-63
2022/08/10 10:38:29;;;;;;;;;;;26.90;44.60;;;;;;5101853;28;20820;-62
2022/08/10 10:41:00;;;;;;;;;;;26.90;44.60;;;;;;5112670;27;20425;-64
2022/08/10 10:43:39;;;;;;;;;;;27.00;44.70;;;;;;5094877;28;20757;-63
2022/08/10 10:46:04;;;;;;;;;;;27.00;44.60;;;;;;5083052;28;19920;-61
2022/08/10 10:48:40;;;;;;;;;;;27.10;44.60;;;;;;5112968;28;19908;-64
2022/08/10 10:51:24;;;;;;;;;;;27.10;44.50;;;;;;5113100;28;19931;-62
2022/08/10 10:54:01;;;;;;;;;;;27.00;44.00;;;;;;5095163;28;19963;-62
2022/08/10 10:56:30;;;;;;;;;;;27.10;44.00;;;;;;5113441;28;20040;-62
2022/08/10 10:59:18;;;;;;;;;;;27.10;43.90;;;;;;5094710;28;20370;-64
2022/08/10 11:02:03;;;;;;;;;;;27.10;43.80;;;;;;5074513;28;19955;-64
2022/08/10 11:04:29;;;;;;;;;;;27.10;43.80;;;;;;5097993;28;20028;-64
2022/08/10 11:07:00;;;;;;;;;;;27.10;43.90;;;;;;5098155;28;19916;-64
2022/08/10 11:09:28;;;;;;;;;;;27.10;43.80;;;;;;5093855;28;20447;-64
2022/08/10 11:11:57;;;;;;;;;;;27.20;44.40;;;;;;5093627;28;20291;-64
2022/08/10 11:14:26;;;;;;;;;;;27.20;43.40;;;;;;5093358;28;19916;-61
2022/08/10 11:16:57;;;;;;;;;;;27.30;43.30;;;;;;5093502;28;19908;-62
2022/08/10 11:19:32;;;;;;;;;;;27.30;43.30;;;;;;5110662;28;19912;-64
2022/08/10 11:22:01;;;;;;;;;;;27.30;43.30;;;;;;5087589;28;19923;-62
2022/08/10 11:24:32;;;;;;;;;;;27.30;43.20;;;;;;5111614;28;19912;-61
2022/08/10 11:27:18;;;;;;;;;;;27.30;43.20;;;;;;5094053;28;19956;-61
2022/08/10 11:29:48;;;;;;;;;;;27.30;43.00;;;;;;5092894;28;19907;-62
2022/08/10 11:32:19;;;;;;;;;;;27.30;42.60;;;;;;5092668;28;19943;-64
2022/08/10 11:34:47;;;;;;;;;;;27.40;42.70;;;;;;5091812;28;19923;-61
2022/08/10 11:37:21;;;;;;;;;;;27.30;42.90;;;;;;5102912;28;20011;-61
2022/08/10 11:39:57;;;;;;;;;;;27.40;42.90;;;;;;5091100;28;19955;-62
2022/08/10 11:42:42;;;;;;;;;;;27.30;42.80;;;;;;5110596;28;19935;-61
2022/08/10 11:45:13;;;;;;;;;;;27.30;43.00;;;;;;5111953;28;20002;-61
2022/08/10 11:47:57;;;;;;;;;;;27.30;41.90;;;;;;5093233;28;19912;-61
2022/08/10 11:50:23;;;;;;;;;;;27.40;42.10;;;;;;5110339;28;19947;-61
2022/08/10 11:52:52;;;;;;;;;;;27.40;42.00;;;;;;5110735;28;19943;-61
2022/08/10 11:55:18;;;;;;;;;;;27.40;41.80;;;;;;5089475;28;19929;-61
2022/08/10 11:57:43;;;;;;;;;;;27.40;42.10;;;;;;5110073;28;19908;-62
2022/08/10 12:00:09;;;;;;;;;;;27.50;41.80;;;;;;5085510;28;19919;-62
2022/08/10 12:02:35;;;;;;;;;;;27.50;41.80;;;;;;5076453;28;19922;-61
2022/08/10 12:05:20;;;;;;;;;;;27.60;41.80;;;;;;5111784;28;20432;-62
2022/08/10 12:07:47;;;;;;;;;;;27.60;41.60;;;;;;5093250;28;20290;-62
2022/08/10 12:10:13;;;;;;;;;;;27.60;41.60;;;;;;5085533;28;20367;-62
2022/08/10 12:12:43;;;;;;;;;;;27.70;41.50;;;;;;5107127;28;19972;-62
2022/08/10 12:15:51;;;;;;;;;;;27.70;41.50;;;;;;5092723;28;21271;-62
2022/08/10 12:18:21;;;;;;;;;;;27.70;41.40;;;;;;5007816;28;19920;-62
2022/08/10 12:20:49;;;;;;;;;;;27.80;41.50;;;;;;5009210;28;19913;-62
2022/08/10 12:23:23;;;;;;;;;;;27.90;41.10;;;;;;5044491;28;20006;-64
2022/08/10 12:26:00;;;;;;;;;;;27.80;41.10;;;;;;5092842;28;20263;-62
2022/08/10 12:28:30;;;;;;;;;;;27.90;41.20;;;;;;5106217;28;20367;-62
2022/08/10 12:30:56;;;;;;;;;;;27.90;41.10;;;;;;5109994;28;20371;-62
2022/08/10 12:33:23;;;;;;;;;;;27.90;41.00;;;;;;5092778;28;19907;-62
2022/08/10 12:36:03;;;;;;;;;;;27.90;40.90;;;;;;5093305;28;19912;-62
2022/08/10 12:38:37;;;;;;;;;;;28.00;40.70;;;;;;5083317;28;19912;-62
2022/08/10 12:41:03;;;;;;;;;;;28.00;40.60;;;;;;5110730;28;19923;-62
2022/08/10 12:43:36;;;;;;;;;;;28.00;40.70;;;;;;5072121;28;20579;-62
2022/08/10 12:46:07;;;;;;;;;;;27.90;40.70;;;;;;5086320;28;19920;-61
2022/08/10 12:48:59;;;;;;;;;;;27.90;40.90;;;;;;5091414;28;20744;-61
2022/08/10 12:51:29;;;;;;;;;;;27.90;40.60;;;;;;5086767;28;20375;-64
2022/08/10 12:54:10;;;;;;;;;;;27.90;40.40;;;;;;5091267;28;19919;-62
2022/08/10 12:56:44;;;;;;;;;;;27.90;40.40;;;;;;5111354;28;19990;-62
2022/08/10 12:59:10;;;;;;;;;;;27.90;40.40;;;;;;5109924;28;20450;-62
2022/08/10 13:01:35;;;;;;;;;;;27.90;40.40;;;;;;5092309;28;20018;-62
2022/08/10 13:04:01;;;;;;;;;;;27.90;40.40;;;;;;5071319;28;20276;-62
2022/08/10 13:06:27;;;;;;;;;;;28.00;40.40;;;;;;5093290;28;19918;-62
2022/08/10 13:09:08;;;;;;;;;;;28.00;40.40;;;;;;5113355;28;19926;-62
2022/08/10 13:11:45;;;;;;;;;;;28.00;40.30;;;;;;5114635;27;20007;-62
2022/08/10 13:14:13;;;;;;;;;;;28.00;40.20;;;;;;5088485;28;19973;-62
2022/08/10 13:16:39;;;;;;;;;;;28.00;40.10;;;;;;5096372;28;20331;-62
2022/08/10 13:19:05;;;;;;;;;;;28.00;40.20;;;;;;5092986;28;19916;-62
2022/08/10 13:21:32;;;;;;;;;;;28.00;40.10;;;;;;5091081;28;20413;-62
2022/08/10 13:24:06;;;;;;;;;;;28.00;40.20;;;;;;5094637;28;19908;-62
2022/08/10 13:26:39;;;;;;;;;;;28.00;40.40;;;;;;5096641;28;19949;-62
2022/08/10 13:29:09;;;;;;;;;;;28.10;40.20;;;;;;5096464;28;19964;-62
2022/08/10 13:31:34;;;;;;;;;;;28.10;39.70;;;;;;5079051;28;19955;-62
2022/08/10 13:34:04;;;;;;;;;;;28.10;39.70;;;;;;5112826;28;19962;-62
2022/08/10 13:36:35;;;;;;;;;;;28.20;40.00;;;;;;5090978;28;19912;-62
2022/08/10 13:39:00;;;;;;;;;;;28.20;39.70;;;;;;5076352;28;19912;-62
2022/08/10 13:41:26;;;;;;;;;;;28.30;39.70;;;;;;5096431;28;19918;-62
2022/08/10 13:43:57;;;;;;;;;;;28.20;39.00;;;;;;5096169;28;19915;-62
2022/08/10 13:46:22;;;;;;;;;;;28.30;38.70;;;;;;5096519;28;19912;-62
2022/08/10 13:48:54;;;;;;;;;;;28.30;38.40;;;;;;5113422;28;20379;-62
2022/08/10 13:51:23;;;;;;;;;;;28.30;38.50;;;;;;5092256;28;19935;-62
2022/08/10 13:53:49;;;;;;;;;;;28.30;38.40;;;;;;5112409;28;19980;-62
2022/08/10 13:56:15;;;;;;;;;;;28.20;38.20;;;;;;5095243;28;19916;-62
2022/08/10 13:58:40;;;;;;;;;;;28.10;38.10;;;;;;5088102;28;19916;-62
2022/08/10 14:01:13;;;;;;;;;;;28.20;37.70;;;;;;5105833;28;19908;-62
2022/08/10 14:03:39;;;;;;;;;;;28.20;37.80;;;;;;5095836;28;20344;-62
2022/08/10 14:06:05;;;;;;;;;;;28.20;37.80;;;;;;5092766;28;20006;-62
2022/08/10 14:08:31;;;;;;;;;;;28.20;37.70;;;;;;5090437;28;20101;-62
2022/08/10 14:11:04;;;;;;;;;;;28.20;37.70;;;;;;5082559;28;20371;-62
2022/08/10 14:13:29;;;;;;;;;;;28.30;37.70;;;;;;5087863;28;19924;-62
2022/08/10 14:15:55;;;;;;;;;;;28.30;37.80;;;;;;5095941;28;19927;-62
2022/08/10 14:18:20;;;;;;;;;;;28.30;38.00;;;;;;5094683;28;19908;-62
2022/08/10 14:20:46;;;;;;;;;;;28.40;37.80;;;;;;5094844;28;19912;-62
2022/08/10 14:23:12;;;;;;;;;;;28.40;37.80;;;;;;5108621;28;20378;-62
2022/08/10 14:25:44;;;;;;;;;;;28.40;38.00;;;;;;5104406;27;20394;-62
2022/08/10 14:28:10;;;;;;;;;;;28.40;38.10;;;;;;5078577;28;20333;-62